sensor_id;sensor_type;location;lat;lon;timestamp;pressure;altitude;pressure_sealevel;temperature
15575;BMP180;7888;46.748;8.102;2023-03-11T00:00:38;92980.00;;;10.20
15575;BMP180;7888;46.748;8.102;2023-03-11T00:03:07;92947.00;;;10.30
15575;BMP180;7888;46.748;8.102;2023-03-11T00:05:37;92940.00;;;10.30
15575;BMP180;7888;46.748;8.102;2023-03-11T00:08:05;92926.00;;;10.20
15575;BMP180;7888;46.748;8.102;2023-03-11T00:10:35;92938.00;;;10.20
15575;BMP180;7888;46.748;8.102;2023-03-11T00:13:03;92930.00;;;10.20
15575;BMP180;7888;46.748;8.102;2023-03-11T00:15:30;92936.00;;;10.20
15575;BMP180;7888;46.748;8.102;2023-03-11T00:17:57;92924.00;;;10.20
15575;BMP180;7888;46.748;8.102;2023-03-11T00:20:31;92938.00;;;10.10
15575;BMP180;7888;46.748;8.102;2023-03-11T00:22:58;92924.00;;;10.10
15575;BMP180;7888;46.748;8.102;2023-03-11T00:25:28;92891.00;;;10.10
15575;BMP180;7888;46.748;8.102;2023-03-11T00:27:55;92907.00;;;10.10
15575;BMP180;7888;46.748;8.102;2023-03-11T00:30:23;92900.00;;;10.10
15575;BMP180;7888;46.748;8.102;2023-03-11T00:32:55;92926.00;;;10.10
15575;BMP180;7888;46.748;8.102;2023-03-11T00:35:28;92933.00;;;10.10
15575;BMP180;7888;46.748;8.102;2023-03-11T00:38:01;92919.00;;;10.10
15575;BMP180;7888;46.748;8.102;2023-03-11T00:40:31;92910.00;;;10.10
15575;BMP180;7888;46.748;8.102;2023-03-11T00:42:58;92918.00;;;10.10
15575;BMP180;7888;46.748;8.102;2023-03-11T00:45:24;92927.00;;;10.10
15575;BMP180;7888;46.748;8.102;2023-03-11T00:47:51;92931.00;;;10.10
15575;BMP180;7888;46.748;8.102;2023-03-11T00:50:24;92910.00;;;10.10
15575;BMP180;7888;46.748;8.102;2023-03-11T00:52:51;92911.00;;;10.20
15575;BMP180;7888;46.748;8.102;2023-03-11T00:55:30;92922.00;;;10.10
15575;BMP180;7888;46.748;8.102;2023-03-11T00:58:02;92934.00;;;10.10
15575;BMP180;7888;46.748;8.102;2023-03-11T01:00:29;92942.00;;;10.10
15575;BMP180;7888;46.748;8.102;2023-03-11T01:02:58;92952.00;;;10.20
15575;BMP180;7888;46.748;8.102;2023-03-11T01:05:31;92944.00;;;10.20
15575;BMP180;7888;46.748;8.102;2023-03-11T01:07:58;92918.00;;;10.20
15575;BMP180;7888;46.748;8.102;2023-03-11T01:10:25;92931.00;;;10.20
15575;BMP180;7888;46.748;8.102;2023-03-11T01:12:51;92936.00;;;10.20
15575;BMP180;7888;46.748;8.102;2023-03-11T01:15:22;92944.00;;;10.20
15575;BMP180;7888;46.748;8.102;2023-03-11T01:17:48;92940.00;;;10.20
15575;BMP180;7888;46.748;8.102;2023-03-11T01:20:15;92901.00;;;10.20
15575;BMP180;7888;46.748;8.102;2023-03-11T01:22:41;92918.00;;;10.20
15575;BMP180;7888;46.748;8.102;2023-03-11T01:25:12;92904.00;;;10.20
15575;BMP180;7888;46.748;8.102;2023-03-11T01:27:39;92904.00;;;10.20
15575;BMP180;7888;46.748;8.102;2023-03-11T01:30:05;92919.00;;;10.20
15575;BMP180;7888;46.748;8.102;2023-03-11T01:32:31;92916.00;;;10.20
15575;BMP180;7888;46.748;8.102;2023-03-11T01:34:57;92918.00;;;10.20
15575;BMP180;7888;46.748;8.102;2023-03-11T01:37:23;92908.00;;;10.20
15575;BMP180;7888;46.748;8.102;2023-03-11T01:39:48;92911.00;;;10.30
15575;BMP180;7888;46.748;8.102;2023-03-11T01:42:14;92910.00;;;10.30
15575;BMP180;7888;46.748;8.102;2023-03-11T01:44:40;92927.00;;;10.30
15575;BMP180;7888;46.748;8.102;2023-03-11T01:49:34;92909.00;;;10.30
15575;BMP180;7888;46.748;8.102;2023-03-11T01:52:05;92902.00;;;10.30
15575;BMP180;7888;46.748;8.102;2023-03-11T01:54:38;92882.00;;;10.30
15575;BMP180;7888;46.748;8.102;2023-03-11T01:57:09;92879.00;;;10.30
15575;BMP180;7888;46.748;8.102;2023-03-11T01:59:44;92872.00;;;10.30
15575;BMP180;7888;46.748;8.102;2023-03-11T02:02:36;92872.00;;;10.30
15575;BMP180;7888;46.748;8.102;2023-03-11T02:05:05;92854.00;;;10.30
15575;BMP180;7888;46.748;8.102;2023-03-11T02:07:31;92849.00;;;10.40
15575;BMP180;7888;46.748;8.102;2023-03-11T02:09:57;92855.00;;;10.30
15575;BMP180;7888;46.748;8.102;2023-03-11T02:12:24;92850.00;;;10.30
15575;BMP180;7888;46.748;8.102;2023-03-11T02:14:51;92848.00;;;10.30
15575;BMP180;7888;46.748;8.102;2023-03-11T02:17:19;92833.00;;;10.30
15575;BMP180;7888;46.748;8.102;2023-03-11T02:20:15;92828.00;;;10.30
15575;BMP180;7888;46.748;8.102;2023-03-11T02:22:43;92819.00;;;10.40
15575;BMP180;7888;46.748;8.102;2023-03-11T02:27:48;92813.00;;;10.40
15575;BMP180;7888;46.748;8.102;2023-03-11T02:30:18;92817.00;;;10.50
15575;BMP180;7888;46.748;8.102;2023-03-11T02:32:46;92801.00;;;10.60
15575;BMP180;7888;46.748;8.102;2023-03-11T02:35:14;92819.00;;;10.60
15575;BMP180;7888;46.748;8.102;2023-03-11T02:37:50;92816.00;;;10.60
15575;BMP180;7888;46.748;8.102;2023-03-11T02:40:37;92821.00;;;10.60
15575;BMP180;7888;46.748;8.102;2023-03-11T02:43:12;92843.00;;;10.60
15575;BMP180;7888;46.748;8.102;2023-03-11T02:45:43;92844.00;;;10.60
15575;BMP180;7888;46.748;8.102;2023-03-11T02:48:11;92850.00;;;10.60
15575;BMP180;7888;46.748;8.102;2023-03-11T02:50:40;92858.00;;;10.60
15575;BMP180;7888;46.748;8.102;2023-03-11T02:53:06;92849.00;;;10.60
15575;BMP180;7888;46.748;8.102;2023-03-11T02:55:33;92860.00;;;10.60
15575;BMP180;7888;46.748;8.102;2023-03-11T02:57:58;92868.00;;;10.50
15575;BMP180;7888;46.748;8.102;2023-03-11T03:00:24;92863.00;;;10.60
15575;BMP180;7888;46.748;8.102;2023-03-11T03:02:50;92858.00;;;10.60
15575;BMP180;7888;46.748;8.102;2023-03-11T03:05:19;92873.00;;;10.60
15575;BMP180;7888;46.748;8.102;2023-03-11T03:07:49;92871.00;;;10.60
15575;BMP180;7888;46.748;8.102;2023-03-11T03:10:17;92869.00;;;10.60
15575;BMP180;7888;46.748;8.102;2023-03-11T03:12:43;92884.00;;;10.60
15575;BMP180;7888;46.748;8.102;2023-03-11T03:15:10;92884.00;;;10.60
15575;BMP180;7888;46.748;8.102;2023-03-11T03:17:36;92898.00;;;10.60
15575;BMP180;7888;46.748;8.102;2023-03-11T03:20:03;92903.00;;;10.60
15575;BMP180;7888;46.748;8.102;2023-03-11T03:22:33;92897.00;;;10.60
15575;BMP180;7888;46.748;8.102;2023-03-11T03:24:59;92901.00;;;10.60
15575;BMP180;7888;46.748;8.102;2023-03-11T03:27:24;92897.00;;;10.50
15575;BMP180;7888;46.748;8.102;2023-03-11T03:29:50;92883.00;;;10.40
15575;BMP180;7888;46.748;8.102;2023-03-11T03:32:16;92890.00;;;10.40
15575;BMP180;7888;46.748;8.102;2023-03-11T03:34:41;92902.00;;;10.40
15575;BMP180;7888;46.748;8.102;2023-03-11T03:37:07;92904.00;;;10.30
15575;BMP180;7888;46.748;8.102;2023-03-11T03:39:33;92911.00;;;10.30
15575;BMP180;7888;46.748;8.102;2023-03-11T03:41:59;92913.00;;;10.30
15575;BMP180;7888;46.748;8.102;2023-03-11T03:44:25;92900.00;;;10.30
15575;BMP180;7888;46.748;8.102;2023-03-11T03:46:50;92877.00;;;10.20
15575;BMP180;7888;46.748;8.102;2023-03-11T03:49:16;92873.00;;;10.10
15575;BMP180;7888;46.748;8.102;2023-03-11T03:51:42;92878.00;;;10.00
15575;BMP180;7888;46.748;8.102;2023-03-11T03:54:08;92865.00;;;9.90
15575;BMP180;7888;46.748;8.102;2023-03-11T03:56:34;92870.00;;;9.90
15575;BMP180;7888;46.748;8.102;2023-03-11T03:58:59;92855.00;;;9.90
15575;BMP180;7888;46.748;8.102;2023-03-11T04:01:25;92852.00;;;9.90
15575;BMP180;7888;46.748;8.102;2023-03-11T04:03:51;92872.00;;;9.90
15575;BMP180;7888;46.748;8.102;2023-03-11T04:06:23;92897.00;;;9.80
15575;BMP180;7888;46.748;8.102;2023-03-11T04:08:53;92894.00;;;9.80
15575;BMP180;7888;46.748;8.102;2023-03-11T04:11:20;92900.00;;;9.80
15575;BMP180;7888;46.748;8.102;2023-03-11T04:13:47;92899.00;;;9.80
15575;BMP180;7888;46.748;8.102;2023-03-11T04:16:23;92872.00;;;9.70
15575;BMP180;7888;46.748;8.102;2023-03-11T04:18:49;92864.00;;;9.70
15575;BMP180;7888;46.748;8.102;2023-03-11T04:21:15;92875.00;;;9.70
15575;BMP180;7888;46.748;8.102;2023-03-11T04:23:41;92885.00;;;9.60
15575;BMP180;7888;46.748;8.102;2023-03-11T04:26:07;92882.00;;;9.50
15575;BMP180;7888;46.748;8.102;2023-03-11T04:28:32;92885.00;;;9.50
15575;BMP180;7888;46.748;8.102;2023-03-11T04:30:58;92879.00;;;9.50
15575;BMP180;7888;46.748;8.102;2023-03-11T04:33:24;92895.00;;;9.50
15575;BMP180;7888;46.748;8.102;2023-03-11T04:35:50;92910.00;;;9.40
15575;BMP180;7888;46.748;8.102;2023-03-11T04:38:16;92921.00;;;9.40
15575;BMP180;7888;46.748;8.102;2023-03-11T04:40:41;92912.00;;;9.40
15575;BMP180;7888;46.748;8.102;2023-03-11T04:43:07;92905.00;;;9.40
15575;BMP180;7888;46.748;8.102;2023-03-11T04:45:33;92910.00;;;9.40
15575;BMP180;7888;46.748;8.102;2023-03-11T04:48:01;92913.00;;;9.40
15575;BMP180;7888;46.748;8.102;2023-03-11T04:50:27;92887.00;;;9.40
15575;BMP180;7888;46.748;8.102;2023-03-11T04:52:52;92903.00;;;9.40
15575;BMP180;7888;46.748;8.102;2023-03-11T04:55:18;92896.00;;;9.40
15575;BMP180;7888;46.748;8.102;2023-03-11T04:57:44;92896.00;;;9.40
15575;BMP180;7888;46.748;8.102;2023-03-11T05:00:14;92887.00;;;9.30
15575;BMP180;7888;46.748;8.102;2023-03-11T05:02:40;92885.00;;;9.30
15575;BMP180;7888;46.748;8.102;2023-03-11T05:05:09;92886.00;;;9.20
15575;BMP180;7888;46.748;8.102;2023-03-11T05:07:35;92896.00;;;9.20
15575;BMP180;7888;46.748;8.102;2023-03-11T05:10:03;92899.00;;;9.10
15575;BMP180;7888;46.748;8.102;2023-03-11T05:12:29;92900.00;;;9.10
15575;BMP180;7888;46.748;8.102;2023-03-11T05:14:55;92900.00;;;9.10
15575;BMP180;7888;46.748;8.102;2023-03-11T05:17:21;92905.00;;;9.10
15575;BMP180;7888;46.748;8.102;2023-03-11T05:19:47;92911.00;;;9.10
15575;BMP180;7888;46.748;8.102;2023-03-11T05:22:13;92907.00;;;9.10
15575;BMP180;7888;46.748;8.102;2023-03-11T05:24:39;92909.00;;;9.10
15575;BMP180;7888;46.748;8.102;2023-03-11T05:27:05;92917.00;;;9.10
15575;BMP180;7888;46.748;8.102;2023-03-11T05:29:31;92913.00;;;9.00
15575;BMP180;7888;46.748;8.102;2023-03-11T05:31:56;92926.00;;;9.00
15575;BMP180;7888;46.748;8.102;2023-03-11T05:34:22;92922.00;;;9.00
15575;BMP180;7888;46.748;8.102;2023-03-11T05:36:48;92926.00;;;8.90
15575;BMP180;7888;46.748;8.102;2023-03-11T05:39:14;92918.00;;;8.90
15575;BMP180;7888;46.748;8.102;2023-03-11T05:41:40;92916.00;;;8.90
15575;BMP180;7888;46.748;8.102;2023-03-11T05:44:06;92925.00;;;8.90
15575;BMP180;7888;46.748;8.102;2023-03-11T05:46:32;92926.00;;;8.80
15575;BMP180;7888;46.748;8.102;2023-03-11T05:48:59;92928.00;;;8.80
15575;BMP180;7888;46.748;8.102;2023-03-11T05:51:25;92917.00;;;8.80
15575;BMP180;7888;46.748;8.102;2023-03-11T05:53:51;92933.00;;;8.80
15575;BMP180;7888;46.748;8.102;2023-03-11T05:56:21;92921.00;;;8.80
15575;BMP180;7888;46.748;8.102;2023-03-11T05:58:47;92918.00;;;8.70
15575;BMP180;7888;46.748;8.102;2023-03-11T06:01:16;92925.00;;;8.70
15575;BMP180;7888;46.748;8.102;2023-03-11T06:03:43;92937.00;;;8.60
15575;BMP180;7888;46.748;8.102;2023-03-11T06:06:11;92931.00;;;8.70
15575;BMP180;7888;46.748;8.102;2023-03-11T06:08:38;92930.00;;;8.70
15575;BMP180;7888;46.748;8.102;2023-03-11T06:11:07;92950.00;;;8.70
15575;BMP180;7888;46.748;8.102;2023-03-11T06:13:34;92959.00;;;8.70
15575;BMP180;7888;46.748;8.102;2023-03-11T06:16:00;92957.00;;;8.60
15575;BMP180;7888;46.748;8.102;2023-03-11T06:18:26;92954.00;;;8.60
15575;BMP180;7888;46.748;8.102;2023-03-11T06:20:53;92967.00;;;8.50
15575;BMP180;7888;46.748;8.102;2023-03-11T06:23:19;92967.00;;;8.50
15575;BMP180;7888;46.748;8.102;2023-03-11T06:26:04;92965.00;;;8.50
15575;BMP180;7888;46.748;8.102;2023-03-11T06:28:30;92971.00;;;8.50
15575;BMP180;7888;46.748;8.102;2023-03-11T06:31:10;92953.00;;;8.50
15575;BMP180;7888;46.748;8.102;2023-03-11T06:33:38;92977.00;;;8.50
15575;BMP180;7888;46.748;8.102;2023-03-11T06:36:05;92997.00;;;8.40
15575;BMP180;7888;46.748;8.102;2023-03-11T06:38:32;92989.00;;;8.40
15575;BMP180;7888;46.748;8.102;2023-03-11T06:41:04;92989.00;;;8.40
15575;BMP180;7888;46.748;8.102;2023-03-11T06:43:32;92991.00;;;8.40
15575;BMP180;7888;46.748;8.102;2023-03-11T06:45:58;92989.00;;;8.40
15575;BMP180;7888;46.748;8.102;2023-03-11T06:48:25;92996.00;;;8.40
15575;BMP180;7888;46.748;8.102;2023-03-11T06:50:58;93003.00;;;8.30
15575;BMP180;7888;46.748;8.102;2023-03-11T06:53:26;92996.00;;;8.30
15575;BMP180;7888;46.748;8.102;2023-03-11T06:56:07;93002.00;;;8.20
15575;BMP180;7888;46.748;8.102;2023-03-11T06:58:36;92992.00;;;8.20
15575;BMP180;7888;46.748;8.102;2023-03-11T07:01:06;93000.00;;;8.20
15575;BMP180;7888;46.748;8.102;2023-03-11T07:03:33;93011.00;;;8.20
15575;BMP180;7888;46.748;8.102;2023-03-11T07:05:59;93027.00;;;8.20
15575;BMP180;7888;46.748;8.102;2023-03-11T07:08:25;93006.00;;;8.20
15575;BMP180;7888;46.748;8.102;2023-03-11T07:11:13;93017.00;;;8.20
15575;BMP180;7888;46.748;8.102;2023-03-11T07:13:40;93022.00;;;8.20
15575;BMP180;7888;46.748;8.102;2023-03-11T07:16:10;93015.00;;;8.20
15575;BMP180;7888;46.748;8.102;2023-03-11T07:18:37;93011.00;;;8.20
15575;BMP180;7888;46.748;8.102;2023-03-11T07:21:06;93011.00;;;8.20
15575;BMP180;7888;46.748;8.102;2023-03-11T07:23:33;93022.00;;;8.20
15575;BMP180;7888;46.748;8.102;2023-03-11T07:25:59;93016.00;;;8.20
15575;BMP180;7888;46.748;8.102;2023-03-11T07:28:27;93017.00;;;8.20
15575;BMP180;7888;46.748;8.102;2023-03-11T07:30:53;93025.00;;;8.20
15575;BMP180;7888;46.748;8.102;2023-03-11T07:33:21;93028.00;;;8.20
15575;BMP180;7888;46.748;8.102;2023-03-11T07:35:49;93016.00;;;8.20
15575;BMP180;7888;46.748;8.102;2023-03-11T07:38:16;93019.00;;;8.10
15575;BMP180;7888;46.748;8.102;2023-03-11T07:40:43;93003.00;;;8.10
15575;BMP180;7888;46.748;8.102;2023-03-11T07:43:09;93014.00;;;8.00
15575;BMP180;7888;46.748;8.102;2023-03-11T07:45:35;92990.00;;;7.90
15575;BMP180;7888;46.748;8.102;2023-03-11T07:48:02;92995.00;;;7.90
15575;BMP180;7888;46.748;8.102;2023-03-11T07:50:28;92991.00;;;7.90
15575;BMP180;7888;46.748;8.102;2023-03-11T07:52:54;92987.00;;;7.90
15575;BMP180;7888;46.748;8.102;2023-03-11T07:55:20;93004.00;;;8.00
15575;BMP180;7888;46.748;8.102;2023-03-11T07:57:47;93000.00;;;8.00
15575;BMP180;7888;46.748;8.102;2023-03-11T08:00:15;92980.00;;;7.90
15575;BMP180;7888;46.748;8.102;2023-03-11T08:02:41;92995.00;;;7.90
15575;BMP180;7888;46.748;8.102;2023-03-11T08:05:07;93014.00;;;7.80
15575;BMP180;7888;46.748;8.102;2023-03-11T08:07:33;93022.00;;;7.70
15575;BMP180;7888;46.748;8.102;2023-03-11T08:09:59;93007.00;;;7.60
15575;BMP180;7888;46.748;8.102;2023-03-11T08:12:25;93002.00;;;7.60
15575;BMP180;7888;46.748;8.102;2023-03-11T08:14:51;93000.00;;;7.50
15575;BMP180;7888;46.748;8.102;2023-03-11T08:17:17;93013.00;;;7.50
15575;BMP180;7888;46.748;8.102;2023-03-11T08:19:43;93024.00;;;7.50
15575;BMP180;7888;46.748;8.102;2023-03-11T08:22:09;93034.00;;;7.50
15575;BMP180;7888;46.748;8.102;2023-03-11T08:24:35;93047.00;;;7.60
15575;BMP180;7888;46.748;8.102;2023-03-11T08:27:01;93058.00;;;7.60
15575;BMP180;7888;46.748;8.102;2023-03-11T08:29:27;93067.00;;;7.70
15575;BMP180;7888;46.748;8.102;2023-03-11T08:31:53;93078.00;;;7.80
15575;BMP180;7888;46.748;8.102;2023-03-11T08:34:19;93079.00;;;7.80
15575;BMP180;7888;46.748;8.102;2023-03-11T08:36:46;93114.00;;;7.90
15575;BMP180;7888;46.748;8.102;2023-03-11T08:39:12;93104.00;;;7.90
15575;BMP180;7888;46.748;8.102;2023-03-11T08:41:38;93118.00;;;7.90
15575;BMP180;7888;46.748;8.102;2023-03-11T08:44:04;93122.00;;;8.00
15575;BMP180;7888;46.748;8.102;2023-03-11T08:46:37;93109.00;;;8.00
15575;BMP180;7888;46.748;8.102;2023-03-11T08:49:04;93133.00;;;8.00
15575;BMP180;7888;46.748;8.102;2023-03-11T08:51:33;93121.00;;;8.10
15575;BMP180;7888;46.748;8.102;2023-03-11T08:54:00;93143.00;;;8.10
15575;BMP180;7888;46.748;8.102;2023-03-11T08:56:27;93139.00;;;8.10
15575;BMP180;7888;46.748;8.102;2023-03-11T08:58:52;93139.00;;;8.20
15575;BMP180;7888;46.748;8.102;2023-03-11T09:01:19;93142.00;;;8.20
15575;BMP180;7888;46.748;8.102;2023-03-11T09:03:45;93147.00;;;8.20
15575;BMP180;7888;46.748;8.102;2023-03-11T09:06:14;93165.00;;;8.30
15575;BMP180;7888;46.748;8.102;2023-03-11T09:08:41;93157.00;;;8.30
15575;BMP180;7888;46.748;8.102;2023-03-11T09:11:08;93165.00;;;8.30
15575;BMP180;7888;46.748;8.102;2023-03-11T09:13:34;93162.00;;;8.40
15575;BMP180;7888;46.748;8.102;2023-03-11T09:16:01;93162.00;;;8.40
15575;BMP180;7888;46.748;8.102;2023-03-11T09:18:27;93159.00;;;8.40
15575;BMP180;7888;46.748;8.102;2023-03-11T09:20:53;93157.00;;;8.40
15575;BMP180;7888;46.748;8.102;2023-03-11T09:23:23;93156.00;;;8.40
15575;BMP180;7888;46.748;8.102;2023-03-11T09:25:49;93155.00;;;8.30
15575;BMP180;7888;46.748;8.102;2023-03-11T09:28:14;93163.00;;;8.40
15575;BMP180;7888;46.748;8.102;2023-03-11T09:30:40;93160.00;;;8.30
15575;BMP180;7888;46.748;8.102;2023-03-11T09:33:07;93163.00;;;8.30
15575;BMP180;7888;46.748;8.102;2023-03-11T09:35:33;93175.00;;;8.20
15575;BMP180;7888;46.748;8.102;2023-03-11T09:37:59;93174.00;;;8.20
15575;BMP180;7888;46.748;8.102;2023-03-11T09:40:44;93172.00;;;8.10
15575;BMP180;7888;46.748;8.102;2023-03-11T09:46:28;93195.00;;;8.00
15575;BMP180;7888;46.748;8.102;2023-03-11T09:52:07;93212.00;;;8.10
15575;BMP180;7888;46.748;8.102;2023-03-11T09:54:42;93204.00;;;8.10
15575;BMP180;7888;46.748;8.102;2023-03-11T09:57:17;93206.00;;;8.10
15575;BMP180;7888;46.748;8.102;2023-03-11T09:59:45;93201.00;;;8.20
15575;BMP180;7888;46.748;8.102;2023-03-11T10:02:18;93211.00;;;8.30
15575;BMP180;7888;46.748;8.102;2023-03-11T10:05:08;93207.00;;;8.30
15575;BMP180;7888;46.748;8.102;2023-03-11T10:07:52;93204.00;;;8.40
15575;BMP180;7888;46.748;8.102;2023-03-11T10:10:20;93199.00;;;8.40
15575;BMP180;7888;46.748;8.102;2023-03-11T10:13:38;93213.00;;;8.50
15575;BMP180;7888;46.748;8.102;2023-03-11T10:16:37;93220.00;;;8.60
15575;BMP180;7888;46.748;8.102;2023-03-11T10:22:13;93220.00;;;8.70
15575;BMP180;7888;46.748;8.102;2023-03-11T10:25:06;93219.00;;;8.70
15575;BMP180;7888;46.748;8.102;2023-03-11T10:30:28;93208.00;;;8.90
15575;BMP180;7888;46.748;8.102;2023-03-11T10:33:16;93203.00;;;8.90
15575;BMP180;7888;46.748;8.102;2023-03-11T10:35:52;93210.00;;;9.00
15575;BMP180;7888;46.748;8.102;2023-03-11T10:38:38;93216.00;;;9.10
15575;BMP180;7888;46.748;8.102;2023-03-11T10:44:11;93207.00;;;9.20
15575;BMP180;7888;46.748;8.102;2023-03-11T10:46:37;93219.00;;;9.30
15575;BMP180;7888;46.748;8.102;2023-03-11T10:49:13;93212.00;;;9.30
15575;BMP180;7888;46.748;8.102;2023-03-11T10:51:41;93217.00;;;9.40
15575;BMP180;7888;46.748;8.102;2023-03-11T10:54:29;93219.00;;;9.40
15575;BMP180;7888;46.748;8.102;2023-03-11T10:57:04;93210.00;;;9.50
15575;BMP180;7888;46.748;8.102;2023-03-11T10:59:50;93213.00;;;9.60
15575;BMP180;7888;46.748;8.102;2023-03-11T11:04:45;93195.00;;;9.60
15575;BMP180;7888;46.748;8.102;2023-03-11T11:07:28;93213.00;;;9.70
15575;BMP180;7888;46.748;8.102;2023-03-11T11:10:19;93200.00;;;9.70
15575;BMP180;7888;46.748;8.102;2023-03-11T11:15:54;93207.00;;;9.80
15575;BMP180;7888;46.748;8.102;2023-03-11T11:18:41;93202.00;;;9.80
15575;BMP180;7888;46.748;8.102;2023-03-11T11:21:14;93204.00;;;9.90
15575;BMP180;7888;46.748;8.102;2023-03-11T11:23:47;93205.00;;;9.90
15575;BMP180;7888;46.748;8.102;2023-03-11T11:26:24;93215.00;;;9.90
15575;BMP180;7888;46.748;8.102;2023-03-11T11:29:17;93216.00;;;9.90
15575;BMP180;7888;46.748;8.102;2023-03-11T11:31:45;93207.00;;;10.00
15575;BMP180;7888;46.748;8.102;2023-03-11T11:34:31;93212.00;;;10.00
15575;BMP180;7888;46.748;8.102;2023-03-11T11:37:01;93195.00;;;10.00
15575;BMP180;7888;46.748;8.102;2023-03-11T11:39:35;93206.00;;;10.00
15575;BMP180;7888;46.748;8.102;2023-03-11T11:42:09;93200.00;;;10.10
15575;BMP180;7888;46.748;8.102;2023-03-11T11:44:36;93193.00;;;10.10
15575;BMP180;7888;46.748;8.102;2023-03-11T11:47:24;93200.00;;;10.10
15575;BMP180;7888;46.748;8.102;2023-03-11T11:49:57;93194.00;;;10.10
15575;BMP180;7888;46.748;8.102;2023-03-11T11:52:32;93188.00;;;10.10
15575;BMP180;7888;46.748;8.102;2023-03-11T11:55:24;93194.00;;;10.10
15575;BMP180;7888;46.748;8.102;2023-03-11T11:57:51;93189.00;;;10.10
15575;BMP180;7888;46.748;8.102;2023-03-11T12:00:21;93198.00;;;10.10
15575;BMP180;7888;46.748;8.102;2023-03-11T12:03:18;93195.00;;;10.10
15575;BMP180;7888;46.748;8.102;2023-03-11T12:15:05;93187.00;;;10.20
15575;BMP180;7888;46.748;8.102;2023-03-11T12:17:40;93181.00;;;10.20
15575;BMP180;7888;46.748;8.102;2023-03-11T12:20:41;93180.00;;;10.20
15575;BMP180;7888;46.748;8.102;2023-03-11T12:26:25;93174.00;;;10.20
15575;BMP180;7888;46.748;8.102;2023-03-11T12:29:11;93180.00;;;10.20
15575;BMP180;7888;46.748;8.102;2023-03-11T12:31:40;93165.00;;;10.20
15575;BMP180;7888;46.748;8.102;2023-03-11T12:34:12;93154.00;;;10.20
15575;BMP180;7888;46.748;8.102;2023-03-11T12:36:41;93159.00;;;10.20
15575;BMP180;7888;46.748;8.102;2023-03-11T12:39:23;93158.00;;;10.10
15575;BMP180;7888;46.748;8.102;2023-03-11T12:42:16;93157.00;;;10.20
15575;BMP180;7888;46.748;8.102;2023-03-11T12:44:43;93151.00;;;10.30
15575;BMP180;7888;46.748;8.102;2023-03-11T12:49:44;93153.00;;;10.40
15575;BMP180;7888;46.748;8.102;2023-03-11T12:54:38;93145.00;;;10.50
15575;BMP180;7888;46.748;8.102;2023-03-11T13:00:13;93154.00;;;10.50
15575;BMP180;7888;46.748;8.102;2023-03-11T13:05:56;93147.00;;;10.50
15575;BMP180;7888;46.748;8.102;2023-03-11T13:08:48;93158.00;;;10.50
15575;BMP180;7888;46.748;8.102;2023-03-11T13:14:33;93155.00;;;10.50
15575;BMP180;7888;46.748;8.102;2023-03-11T13:17:29;93156.00;;;10.50
15575;BMP180;7888;46.748;8.102;2023-03-11T13:19:58;93161.00;;;10.50
15575;BMP180;7888;46.748;8.102;2023-03-11T13:22:45;93168.00;;;10.50
15575;BMP180;7888;46.748;8.102;2023-03-11T13:40:41;93201.00;;;10.50
15575;BMP180;7888;46.748;8.102;2023-03-11T13:43:20;93195.00;;;10.50
15575;BMP180;7888;46.748;8.102;2023-03-11T13:46:05;93205.00;;;10.40
15575;BMP180;7888;46.748;8.102;2023-03-11T13:48:46;93210.00;;;10.50
15575;BMP180;7888;46.748;8.102;2023-03-11T13:51:26;93214.00;;;10.50
15575;BMP180;7888;46.748;8.102;2023-03-11T13:57:31;93215.00;;;10.50
15575;BMP180;7888;46.748;8.102;2023-03-11T14:00:15;93216.00;;;10.50
15575;BMP180;7888;46.748;8.102;2023-03-11T14:03:10;93209.00;;;10.50
15575;BMP180;7888;46.748;8.102;2023-03-11T14:05:44;93216.00;;;10.60
15575;BMP180;7888;46.748;8.102;2023-03-11T14:08:22;93224.00;;;10.60
15575;BMP180;7888;46.748;8.102;2023-03-11T14:10:57;93227.00;;;10.60
15575;BMP180;7888;46.748;8.102;2023-03-11T14:13:30;93231.00;;;10.60
15575;BMP180;7888;46.748;8.102;2023-03-11T14:16:09;93233.00;;;10.60
15575;BMP180;7888;46.748;8.102;2023-03-11T14:21:20;93233.00;;;10.60
15575;BMP180;7888;46.748;8.102;2023-03-11T14:23:50;93237.00;;;10.60
15575;BMP180;7888;46.748;8.102;2023-03-11T14:26:29;93225.00;;;10.50
15575;BMP180;7888;46.748;8.102;2023-03-11T14:29:06;93237.00;;;10.50
15575;BMP180;7888;46.748;8.102;2023-03-11T14:31:36;93230.00;;;10.50
15575;BMP180;7888;46.748;8.102;2023-03-11T14:34:24;93219.00;;;10.40
15575;BMP180;7888;46.748;8.102;2023-03-11T14:36:57;93229.00;;;10.40
15575;BMP180;7888;46.748;8.102;2023-03-11T14:39:33;93227.00;;;10.40
15575;BMP180;7888;46.748;8.102;2023-03-11T14:42:24;93224.00;;;10.40
15575;BMP180;7888;46.748;8.102;2023-03-11T14:45:17;93226.00;;;10.30
15575;BMP180;7888;46.748;8.102;2023-03-11T14:50:34;93226.00;;;10.30
15575;BMP180;7888;46.748;8.102;2023-03-11T14:53:26;93238.00;;;10.20
15575;BMP180;7888;46.748;8.102;2023-03-11T14:58:39;93237.00;;;10.10
15575;BMP180;7888;46.748;8.102;2023-03-11T15:03:59;93241.00;;;9.90
15575;BMP180;7888;46.748;8.102;2023-03-11T15:06:28;93234.00;;;9.90
15575;BMP180;7888;46.748;8.102;2023-03-11T15:09:17;93246.00;;;9.80
15575;BMP180;7888;46.748;8.102;2023-03-11T15:11:55;93255.00;;;9.80
15575;BMP180;7888;46.748;8.102;2023-03-11T15:14:48;93247.00;;;9.80
15575;BMP180;7888;46.748;8.102;2023-03-11T15:17:26;93250.00;;;9.70
15575;BMP180;7888;46.748;8.102;2023-03-11T15:19:57;93249.00;;;9.70
15575;BMP180;7888;46.748;8.102;2023-03-11T15:22:37;93260.00;;;9.70
15575;BMP180;7888;46.748;8.102;2023-03-11T15:25:17;93258.00;;;9.70
15575;BMP180;7888;46.748;8.102;2023-03-11T15:27:44;93260.00;;;9.70
15575;BMP180;7888;46.748;8.102;2023-03-11T15:30:26;93255.00;;;9.60
15575;BMP180;7888;46.748;8.102;2023-03-11T15:32:52;93254.00;;;9.70
15575;BMP180;7888;46.748;8.102;2023-03-11T15:35:29;93256.00;;;9.60
15575;BMP180;7888;46.748;8.102;2023-03-11T15:38:30;93251.00;;;9.60
15575;BMP180;7888;46.748;8.102;2023-03-11T15:40:59;93261.00;;;9.60
15575;BMP180;7888;46.748;8.102;2023-03-11T15:43:33;93256.00;;;9.60
15575;BMP180;7888;46.748;8.102;2023-03-11T15:46:01;93249.00;;;9.50
15575;BMP180;7888;46.748;8.102;2023-03-11T15:48:28;93258.00;;;9.60
15575;BMP180;7888;46.748;8.102;2023-03-11T15:50:59;93256.00;;;9.50
15575;BMP180;7888;46.748;8.102;2023-03-11T15:53:28;93255.00;;;9.50
15575;BMP180;7888;46.748;8.102;2023-03-11T15:56:01;93258.00;;;9.50
15575;BMP180;7888;46.748;8.102;2023-03-11T15:58:27;93267.00;;;9.50
15575;BMP180;7888;46.748;8.102;2023-03-11T16:00:56;93262.00;;;9.50
15575;BMP180;7888;46.748;8.102;2023-03-11T16:03:23;93261.00;;;9.50
15575;BMP180;7888;46.748;8.102;2023-03-11T16:05:49;93269.00;;;9.50
15575;BMP180;7888;46.748;8.102;2023-03-11T16:08:15;93255.00;;;9.50
15575;BMP180;7888;46.748;8.102;2023-03-11T16:10:42;93269.00;;;9.50
15575;BMP180;7888;46.748;8.102;2023-03-11T16:13:12;93278.00;;;9.40